sensor_id;sensor_type;location;lat;lon;timestamp;pressure;altitude;pressure_sealevel;temperature;humidity
75136;BME280;63707;52.212;9.540;2022-11-15T00:00:31;99624.44;;;6.37;92.56
75136;BME280;63707;52.212;9.540;2022-11-15T00:02:57;99635.22;;;6.67;91.19
75136;BME280;63707;52.212;9.540;2022-11-15T00:05:23;99620.44;;;6.33;92.46
75136;BME280;63707;52.212;9.540;2022-11-15T00:07:49;99618.22;;;6.22;92.88
75136;BME280;63707;52.212;9.540;2022-11-15T00:10:15;99620.00;;;6.29;93.30
75136;BME280;63707;52.212;9.540;2022-11-15T00:12:41;99623.63;;;6.37;92.83
75136;BME280;63707;52.212;9.540;2022-11-15T00:15:07;99624.06;;;6.40;93.40
75136;BME280;63707;52.212;9.540;2022-11-15T00:17:33;99625.38;;;6.44;93.26
75136;BME280;63707;52.212;9.540;2022-11-15T00:19:58;99616.06;;;6.68;93.38
75136;BME280;63707;52.212;9.540;2022-11-15T00:22:24;99625.28;;;6.95;92.07
75136;BME280;63707;52.212;9.540;2022-11-15T00:24:51;99614.91;;;6.99;92.19
75136;BME280;63707;52.212;9.540;2022-11-15T00:27:16;99622.09;;;7.34;91.04
75136;BME280;63707;52.212;9.540;2022-11-15T00:29:42;99625.69;;;7.13;91.85
75136;BME280;63707;52.212;9.540;2022-11-15T00:32:08;99616.00;;;7.53;90.76
75136;BME280;63707;52.212;9.540;2022-11-15T00:34:34;99621.50;;;8.01;88.62
75136;BME280;63707;52.212;9.540;2022-11-15T00:36:59;99607.75;;;8.37;87.36
75136;BME280;63707;52.212;9.540;2022-11-15T00:39:25;99615.09;;;8.50;86.26
75136;BME280;63707;52.212;9.540;2022-11-15T00:41:52;99612.44;;;8.57;86.26
75136;BME280;63707;52.212;9.540;2022-11-15T00:44:17;99608.09;;;8.82;85.58
75136;BME280;63707;52.212;9.540;2022-11-15T00:46:43;99603.28;;;8.77;85.64
75136;BME280;63707;52.212;9.540;2022-11-15T00:49:08;99600.34;;;8.72;85.27
75136;BME280;63707;52.212;9.540;2022-11-15T00:51:34;99604.97;;;8.85;85.19
75136;BME280;63707;52.212;9.540;2022-11-15T00:54:00;99603.34;;;9.04;84.19
75136;BME280;63707;52.212;9.540;2022-11-15T00:56:25;99599.50;;;8.78;85.90
75136;BME280;63707;52.212;9.540;2022-11-15T00:58:52;99602.28;;;9.18;84.09
75136;BME280;63707;52.212;9.540;2022-11-15T01:01:18;99600.41;;;9.12;84.18
75136;BME280;63707;52.212;9.540;2022-11-15T01:03:43;99600.94;;;8.55;85.50
75136;BME280;63707;52.212;9.540;2022-11-15T01:06:09;99598.78;;;8.43;86.13
75136;BME280;63707;52.212;9.540;2022-11-15T01:08:35;99599.53;;;8.31;86.35
75136;BME280;63707;52.212;9.540;2022-11-15T01:11:01;99600.06;;;8.06;87.76
75136;BME280;63707;52.212;9.540;2022-11-15T01:13:30;99592.03;;;7.92;88.85
75136;BME280;63707;52.212;9.540;2022-11-15T01:15:57;99591.34;;;7.76;88.77
75136;BME280;63707;52.212;9.540;2022-11-15T01:18:23;99572.31;;;7.70;89.35
75136;BME280;63707;52.212;9.540;2022-11-15T01:20:48;99577.53;;;7.71;88.92
75136;BME280;63707;52.212;9.540;2022-11-15T01:23:14;99573.00;;;7.78;88.55
75136;BME280;63707;52.212;9.540;2022-11-15T01:25:39;99569.88;;;7.81;89.00
75136;BME280;63707;52.212;9.540;2022-11-15T01:28:05;99564.22;;;7.76;88.84
75136;BME280;63707;52.212;9.540;2022-11-15T01:30:30;99558.16;;;7.74;89.38
75136;BME280;63707;52.212;9.540;2022-11-15T01:32:57;99553.78;;;7.73;89.88
75136;BME280;63707;52.212;9.540;2022-11-15T01:35:23;99548.97;;;7.69;90.54
75136;BME280;63707;52.212;9.540;2022-11-15T01:37:49;99550.88;;;7.75;90.00
75136;BME280;63707;52.212;9.540;2022-11-15T01:40:15;99545.03;;;7.78;90.23
75136;BME280;63707;52.212;9.540;2022-11-15T01:42:41;99554.19;;;7.70;90.71
75136;BME280;63707;52.212;9.540;2022-11-15T01:45:12;99540.84;;;7.75;90.16
75136;BME280;63707;52.212;9.540;2022-11-15T01:47:40;99544.44;;;7.82;89.03
75136;BME280;63707;52.212;9.540;2022-11-15T01:50:10;99546.06;;;7.77;90.01
75136;BME280;63707;52.212;9.540;2022-11-15T01:52:37;99545.84;;;7.72;89.90
75136;BME280;63707;52.212;9.540;2022-11-15T01:55:07;99544.97;;;8.06;88.96
75136;BME280;63707;52.212;9.540;2022-11-15T01:57:34;99532.25;;;9.00;87.51
75136;BME280;63707;52.212;9.540;2022-11-15T02:00:01;99531.94;;;9.74;84.75
75136;BME280;63707;52.212;9.540;2022-11-15T02:02:28;99524.50;;;10.08;83.02
75136;BME280;63707;52.212;9.540;2022-11-15T02:04:54;99522.84;;;10.07;83.09
75136;BME280;63707;52.212;9.540;2022-11-15T02:07:21;99521.41;;;9.98;82.88
75136;BME280;63707;52.212;9.540;2022-11-15T02:09:48;99518.09;;;9.83;84.50
75136;BME280;63707;52.212;9.540;2022-11-15T02:12:16;99525.81;;;9.92;84.17
75136;BME280;63707;52.212;9.540;2022-11-15T02:14:47;99513.19;;;10.11;82.81
75136;BME280;63707;52.212;9.540;2022-11-15T02:17:25;99517.72;;;10.30;82.61
75136;BME280;63707;52.212;9.540;2022-11-15T02:20:26;99520.22;;;10.32;82.43
75136;BME280;63707;52.212;9.540;2022-11-15T02:23:19;99515.59;;;10.32;82.42
75136;BME280;63707;52.212;9.540;2022-11-15T02:25:57;99513.91;;;10.38;82.77
75136;BME280;63707;52.212;9.540;2022-11-15T02:28:52;99514.50;;;10.40;82.62
75136;BME280;63707;52.212;9.540;2022-11-15T02:31:28;99509.72;;;10.35;82.06
75136;BME280;63707;52.212;9.540;2022-11-15T02:34:03;99512.63;;;10.47;82.33
75136;BME280;63707;52.212;9.540;2022-11-15T02:36:36;99506.78;;;10.44;82.73
75136;BME280;63707;52.212;9.540;2022-11-15T02:39:11;99494.44;;;10.41;82.62
75136;BME280;63707;52.212;9.540;2022-11-15T02:41:45;99500.75;;;10.28;83.70
75136;BME280;63707;52.212;9.540;2022-11-15T02:44:17;99490.44;;;10.44;82.62
75136;BME280;63707;52.212;9.540;2022-11-15T02:46:48;99504.97;;;10.62;81.79
75136;BME280;63707;52.212;9.540;2022-11-15T02:49:34;99498.19;;;10.71;81.06
75136;BME280;63707;52.212;9.540;2022-11-15T02:52:00;99503.03;;;10.69;81.56
75136;BME280;63707;52.212;9.540;2022-11-15T02:54:29;99501.84;;;10.84;80.98
75136;BME280;63707;52.212;9.540;2022-11-15T02:56:59;99496.41;;;10.84;81.02
75136;BME280;63707;52.212;9.540;2022-11-15T02:59:59;99491.41;;;10.81;81.03
75136;BME280;63707;52.212;9.540;2022-11-15T03:02:40;99499.84;;;10.72;82.04
75136;BME280;63707;52.212;9.540;2022-11-15T03:05:14;99502.31;;;10.81;81.13
75136;BME280;63707;52.212;9.540;2022-11-15T03:07:50;99496.38;;;10.90;81.16
75136;BME280;63707;52.212;9.540;2022-11-15T03:10:20;99494.06;;;10.87;80.71
75136;BME280;63707;52.212;9.540;2022-11-15T03:12:52;99489.25;;;10.89;80.85
75136;BME280;63707;52.212;9.540;2022-11-15T03:15:21;99494.34;;;10.79;81.27
75136;BME280;63707;52.212;9.540;2022-11-15T03:17:54;99492.50;;;10.73;82.23
75136;BME280;63707;52.212;9.540;2022-11-15T03:20:23;99490.97;;;10.84;80.99
75136;BME280;63707;52.212;9.540;2022-11-15T03:22:51;99487.78;;;10.87;81.54
75136;BME280;63707;52.212;9.540;2022-11-15T03:25:21;99491.34;;;10.87;81.00
75136;BME280;63707;52.212;9.540;2022-11-15T03:27:51;99484.13;;;10.99;80.45
75136;BME280;63707;52.212;9.540;2022-11-15T03:30:18;99481.09;;;10.89;81.24
75136;BME280;63707;52.212;9.540;2022-11-15T03:32:46;99476.25;;;10.91;80.86
75136;BME280;63707;52.212;9.540;2022-11-15T03:35:17;99479.53;;;11.00;80.74
75136;BME280;63707;52.212;9.540;2022-11-15T03:37:47;99476.88;;;11.12;80.06
75136;BME280;63707;52.212;9.540;2022-11-15T03:40:15;99473.66;;;11.21;79.20
75136;BME280;63707;52.212;9.540;2022-11-15T03:42:45;99474.00;;;11.07;80.12
75136;BME280;63707;52.212;9.540;2022-11-15T03:45:15;99476.44;;;11.15;79.14
75136;BME280;63707;52.212;9.540;2022-11-15T03:47:45;99481.41;;;10.99;79.91
75136;BME280;63707;52.212;9.540;2022-11-15T03:50:18;99478.56;;;11.13;79.70
75136;BME280;63707;52.212;9.540;2022-11-15T03:52:45;99475.69;;;11.08;79.92
75136;BME280;63707;52.212;9.540;2022-11-15T03:55:13;99470.16;;;11.14;79.53
75136;BME280;63707;52.212;9.540;2022-11-15T03:57:39;99478.09;;;11.16;79.68
75136;BME280;63707;52.212;9.540;2022-11-15T04:00:06;99467.94;;;11.04;79.38
75136;BME280;63707;52.212;9.540;2022-11-15T04:02:31;99466.34;;;10.97;79.84
75136;BME280;63707;52.212;9.540;2022-11-15T04:04:57;99469.75;;;10.92;80.19
75136;BME280;63707;52.212;9.540;2022-11-15T04:07:24;99470.09;;;10.71;80.99
75136;BME280;63707;52.212;9.540;2022-11-15T04:09:49;99466.50;;;10.77;79.83
75136;BME280;63707;52.212;9.540;2022-11-15T04:12:35;99467.31;;;10.53;81.09
75136;BME280;63707;52.212;9.540;2022-11-15T04:15:04;99452.41;;;10.55;81.31
75136;BME280;63707;52.212;9.540;2022-11-15T04:17:34;99459.81;;;10.48;81.02
75136;BME280;63707;52.212;9.540;2022-11-15T04:20:00;99471.09;;;10.52;80.96
75136;BME280;63707;52.212;9.540;2022-11-15T04:22:45;99464.38;;;10.54;80.61
75136;BME280;63707;52.212;9.540;2022-11-15T04:25:29;99467.50;;;10.58;81.00
75136;BME280;63707;52.212;9.540;2022-11-15T04:27:55;99465.69;;;10.45;81.27
75136;BME280;63707;52.212;9.540;2022-11-15T04:30:20;99469.09;;;10.40;81.43
75136;BME280;63707;52.212;9.540;2022-11-15T04:32:46;99468.88;;;10.42;81.35
75136;BME280;63707;52.212;9.540;2022-11-15T04:35:12;99464.63;;;10.46;81.06
75136;BME280;63707;52.212;9.540;2022-11-15T04:37:37;99469.50;;;10.69;80.14
75136;BME280;63707;52.212;9.540;2022-11-15T04:40:05;99477.88;;;10.67;79.82
75136;BME280;63707;52.212;9.540;2022-11-15T04:42:31;99471.31;;;10.75;79.70
75136;BME280;63707;52.212;9.540;2022-11-15T04:44:56;99470.72;;;10.73;79.38
75136;BME280;63707;52.212;9.540;2022-11-15T04:47:22;99466.81;;;10.62;80.06
75136;BME280;63707;52.212;9.540;2022-11-15T04:49:47;99465.09;;;10.68;79.94
75136;BME280;63707;52.212;9.540;2022-11-15T04:52:13;99469.09;;;10.65;80.16
75136;BME280;63707;52.212;9.540;2022-11-15T04:54:38;99468.09;;;10.60;80.12
75136;BME280;63707;52.212;9.540;2022-11-15T04:57:05;99477.88;;;10.67;80.28
75136;BME280;63707;52.212;9.540;2022-11-15T04:59:31;99472.88;;;10.64;79.58
75136;BME280;63707;52.212;9.540;2022-11-15T05:01:56;99474.78;;;10.64;79.66
75136;BME280;63707;52.212;9.540;2022-11-15T05:04:22;99469.03;;;10.72;79.18
75136;BME280;63707;52.212;9.540;2022-11-15T05:06:49;99468.72;;;10.62;79.97
75136;BME280;63707;52.212;9.540;2022-11-15T05:09:15;99470.59;;;10.61;79.95
75136;BME280;63707;52.212;9.540;2022-11-15T05:11:41;99471.81;;;10.65;79.69
75136;BME280;63707;52.212;9.540;2022-11-15T05:14:08;99462.66;;;10.60;79.47
75136;BME280;63707;52.212;9.540;2022-11-15T05:16:33;99471.03;;;10.58;80.29
75136;BME280;63707;52.212;9.540;2022-11-15T05:18:59;99472.59;;;10.48;80.74
75136;BME280;63707;52.212;9.540;2022-11-15T05:21:24;99465.59;;;10.58;79.44
75136;BME280;63707;52.212;9.540;2022-11-15T05:23:50;99469.38;;;10.57;79.76
75136;BME280;63707;52.212;9.540;2022-11-15T05:26:17;99465.38;;;10.60;79.17
75136;BME280;63707;52.212;9.540;2022-11-15T05:28:43;99470.03;;;10.53;80.07
75136;BME280;63707;52.212;9.540;2022-11-15T05:31:12;99477.22;;;10.47;80.01
75136;BME280;63707;52.212;9.540;2022-11-15T05:33:38;99470.69;;;10.48;80.14
75136;BME280;63707;52.212;9.540;2022-11-15T05:36:09;99469.66;;;10.49;80.30
75136;BME280;63707;52.212;9.540;2022-11-15T05:38:37;99467.00;;;10.36;80.23
75136;BME280;63707;52.212;9.540;2022-11-15T05:41:03;99464.38;;;10.16;81.19
75136;BME280;63707;52.212;9.540;2022-11-15T05:43:30;99469.38;;;10.19;81.28
75136;BME280;63707;52.212;9.540;2022-11-15T05:45:59;99466.03;;;10.24;81.53
75136;BME280;63707;52.212;9.540;2022-11-15T05:48:27;99466.19;;;10.29;81.11
75136;BME280;63707;52.212;9.540;2022-11-15T05:50:52;99458.88;;;10.29;81.35
75136;BME280;63707;52.212;9.540;2022-11-15T05:53:19;99465.97;;;10.30;81.72
75136;BME280;63707;52.212;9.540;2022-11-15T05:55:47;99460.31;;;10.32;81.46
75136;BME280;63707;52.212;9.540;2022-11-15T05:58:12;99460.19;;;10.20;81.52
75136;BME280;63707;52.212;9.540;2022-11-15T06:00:38;99463.53;;;10.22;81.56
75136;BME280;63707;52.212;9.540;2022-11-15T06:03:04;99463.75;;;10.21;82.03
75136;BME280;63707;52.212;9.540;2022-11-15T06:05:31;99463.75;;;10.14;81.61
75136;BME280;63707;52.212;9.540;2022-11-15T06:07:57;99468.41;;;10.07;82.72
75136;BME280;63707;52.212;9.540;2022-11-15T06:10:23;99463.13;;;10.12;82.16
75136;BME280;63707;52.212;9.540;2022-11-15T06:12:56;99467.78;;;10.05;82.24
75136;BME280;63707;52.212;9.540;2022-11-15T06:15:21;99467.63;;;9.87;83.15
75136;BME280;63707;52.212;9.540;2022-11-15T06:17:47;99474.19;;;9.72;84.63
75136;BME280;63707;52.212;9.540;2022-11-15T06:20:12;99474.00;;;9.67;84.98
75136;BME280;63707;52.212;9.540;2022-11-15T06:22:39;99474.91;;;9.48;84.94
75136;BME280;63707;52.212;9.540;2022-11-15T06:25:05;99475.97;;;9.34;85.58
75136;BME280;63707;52.212;9.540;2022-11-15T06:27:31;99475.13;;;9.46;85.57
75136;BME280;63707;52.212;9.540;2022-11-15T06:29:56;99468.16;;;9.64;84.78
75136;BME280;63707;52.212;9.540;2022-11-15T06:32:22;99468.56;;;9.67;84.75
75136;BME280;63707;52.212;9.540;2022-11-15T06:34:47;99474.19;;;9.72;83.86
75136;BME280;63707;52.212;9.540;2022-11-15T06:37:13;99473.75;;;9.75;84.76
75136;BME280;63707;52.212;9.540;2022-11-15T06:39:40;99477.66;;;9.93;83.62
75136;BME280;63707;52.212;9.540;2022-11-15T06:42:05;99475.84;;;9.73;84.39
75136;BME280;63707;52.212;9.540;2022-11-15T06:44:31;99482.56;;;9.71;84.54
75136;BME280;63707;52.212;9.540;2022-11-15T06:46:56;99479.53;;;9.99;82.76
75136;BME280;63707;52.212;9.540;2022-11-15T06:49:22;99478.88;;;10.03;83.24
75136;BME280;63707;52.212;9.540;2022-11-15T06:51:47;99481.53;;;10.17;82.23
75136;BME280;63707;52.212;9.540;2022-11-15T06:54:13;99492.63;;;10.15;82.55
75136;BME280;63707;52.212;9.540;2022-11-15T06:56:40;99485.53;;;10.21;81.86
75136;BME280;63707;52.212;9.540;2022-11-15T06:59:05;99482.16;;;10.19;81.96
75136;BME280;63707;52.212;9.540;2022-11-15T07:01:31;99479.25;;;10.14;81.27
75136;BME280;63707;52.212;9.540;2022-11-15T07:03:56;99492.56;;;10.35;80.63
75136;BME280;63707;52.212;9.540;2022-11-15T07:06:22;99485.66;;;10.32;81.49
75136;BME280;63707;52.212;9.540;2022-11-15T07:08:47;99495.66;;;10.38;80.78
75136;BME280;63707;52.212;9.540;2022-11-15T07:11:13;99492.06;;;10.51;80.32
75136;BME280;63707;52.212;9.540;2022-11-15T07:13:41;99491.63;;;10.54;80.46
75136;BME280;63707;52.212;9.540;2022-11-15T07:16:08;99489.91;;;10.60;79.87
75136;BME280;63707;52.212;9.540;2022-11-15T07:18:34;99487.28;;;10.71;79.16
75136;BME280;63707;52.212;9.540;2022-11-15T07:21:01;99493.69;;;11.09;78.10
75136;BME280;63707;52.212;9.540;2022-11-15T07:23:27;99500.22;;;12.54;72.93
75136;BME280;63707;52.212;9.540;2022-11-15T07:25:53;99495.19;;;12.39;72.85
75136;BME280;63707;52.212;9.540;2022-11-15T07:28:18;99501.44;;;12.10;73.50
75136;BME280;63707;52.212;9.540;2022-11-15T07:30:45;99513.63;;;12.44;72.26
75136;BME280;63707;52.212;9.540;2022-11-15T07:33:11;99502.28;;;13.23;69.38
75136;BME280;63707;52.212;9.540;2022-11-15T07:35:36;99505.22;;;13.92;67.06
75136;BME280;63707;52.212;9.540;2022-11-15T07:38:02;99508.47;;;13.66;67.78
75136;BME280;63707;52.212;9.540;2022-11-15T07:40:29;99506.22;;;12.74;70.38
75136;BME280;63707;52.212;9.540;2022-11-15T07:42:59;99503.72;;;11.58;74.60
75136;BME280;63707;52.212;9.540;2022-11-15T07:45:25;99504.78;;;11.32;76.48
75136;BME280;63707;52.212;9.540;2022-11-15T07:47:55;99498.88;;;11.17;77.01
75136;BME280;63707;52.212;9.540;2022-11-15T07:50:21;99493.63;;;11.77;75.58
75136;BME280;63707;52.212;9.540;2022-11-15T07:52:47;99499.56;;;12.10;73.81
75136;BME280;63707;52.212;9.540;2022-11-15T07:55:13;99488.75;;;14.04;67.71
75136;BME280;63707;52.212;9.540;2022-11-15T07:57:38;99487.00;;;15.67;61.90
75136;BME280;63707;52.212;9.540;2022-11-15T08:00:05;99490.28;;;16.29;60.03
75136;BME280;63707;52.212;9.540;2022-11-15T08:02:31;99497.22;;;14.42;64.05
75136;BME280;63707;52.212;9.540;2022-11-15T08:04:58;99489.84;;;16.91;57.38
75136;BME280;63707;52.212;9.540;2022-11-15T08:07:24;99487.03;;;17.55;55.22
75136;BME280;63707;52.212;9.540;2022-11-15T08:09:50;99488.97;;;18.90;51.31
75136;BME280;63707;52.212;9.540;2022-11-15T08:12:15;99496.81;;;16.72;56.87
75136;BME280;63707;52.212;9.540;2022-11-15T08:14:41;99483.47;;;19.15;50.06
75136;BME280;63707;52.212;9.540;2022-11-15T08:17:06;99487.63;;;18.93;51.41
75136;BME280;63707;52.212;9.540;2022-11-15T08:19:32;99492.69;;;17.76;53.56
75136;BME280;63707;52.212;9.540;2022-11-15T08:21:59;99502.50;;;16.17;57.83
75136;BME280;63707;52.212;9.540;2022-11-15T08:24:24;99489.38;;;16.24;59.09
75136;BME280;63707;52.212;9.540;2022-11-15T08:26:50;99502.63;;;16.76;57.43
75136;BME280;63707;52.212;9.540;2022-11-15T08:29:15;99490.41;;;18.15;52.41
75136;BME280;63707;52.212;9.540;2022-11-15T08:31:41;99493.53;;;16.26;55.86
75136;BME280;63707;52.212;9.540;2022-11-15T08:34:06;99504.13;;;17.20;55.36
75136;BME280;63707;52.212;9.540;2022-11-15T08:36:32;99485.22;;;15.22;61.18
75136;BME280;63707;52.212;9.540;2022-11-15T08:38:59;99494.06;;;12.58;69.79
75136;BME280;63707;52.212;9.540;2022-11-15T08:41:27;99492.34;;;12.87;69.97
75136;BME280;63707;52.212;9.540;2022-11-15T08:43:53;99485.34;;;13.03;68.49
75136;BME280;63707;52.212;9.540;2022-11-15T08:46:19;99483.16;;;12.70;69.85
75136;BME280;63707;52.212;9.540;2022-11-15T08:48:44;99484.78;;;12.59;71.18
75136;BME280;63707;52.212;9.540;2022-11-15T08:51:10;99480.22;;;12.42;72.00
75136;BME280;63707;52.212;9.540;2022-11-15T08:53:35;99479.31;;;12.59;70.86
75136;BME280;63707;52.212;9.540;2022-11-15T08:56:02;99479.78;;;12.56;71.54
75136;BME280;63707;52.212;9.540;2022-11-15T08:58:28;99474.53;;;12.97;70.88
75136;BME280;63707;52.212;9.540;2022-11-15T09:00:54;99473.72;;;13.08;69.49
75136;BME280;63707;52.212;9.540;2022-11-15T09:03:20;99459.75;;;13.91;71.04
75136;BME280;63707;52.212;9.540;2022-11-15T09:05:45;99471.50;;;13.28;68.49
75136;BME280;63707;52.212;9.540;2022-11-15T09:08:11;99463.97;;;13.23;68.90
75136;BME280;63707;52.212;9.540;2022-11-15T09:10:38;99468.50;;;13.53;68.55
75136;BME280;63707;52.212;9.540;2022-11-15T09:13:05;99472.88;;;13.07;69.38
75136;BME280;63707;52.212;9.540;2022-11-15T09:15:30;99464.13;;;13.29;68.54
75136;BME280;63707;52.212;9.540;2022-11-15T09:17:57;99459.25;;;13.31;69.03
75136;BME280;63707;52.212;9.540;2022-11-15T09:20:23;99462.31;;;13.46;68.33
75136;BME280;63707;52.212;9.540;2022-11-15T09:22:49;99461.13;;;13.18;68.81
75136;BME280;63707;52.212;9.540;2022-11-15T09:25:14;99449.69;;;13.10;69.14
75136;BME280;63707;52.212;9.540;2022-11-15T09:27:40;99452.78;;;13.02;69.56
75136;BME280;63707;52.212;9.540;2022-11-15T09:30:07;99466.09;;;12.98;69.66
75136;BME280;63707;52.212;9.540;2022-11-15T09:32:33;99459.06;;;12.90;70.27
75136;BME280;63707;52.212;9.540;2022-11-15T09:34:59;99458.84;;;13.15;70.07
75136;BME280;63707;52.212;9.540;2022-11-15T09:37:24;99462.88;;;12.89;70.09
75136;BME280;63707;52.212;9.540;2022-11-15T09:39:50;99457.06;;;12.86;70.33
75136;BME280;63707;52.212;9.540;2022-11-15T09:42:25;99457.06;;;12.86;70.17
75136;BME280;63707;52.212;9.540;2022-11-15T09:45:03;99460.97;;;12.78;70.42
75136;BME280;63707;52.212;9.540;2022-11-15T09:48:03;99460.75;;;13.15;69.63
75136;BME280;63707;52.212;9.540;2022-11-15T09:50:36;99459.66;;;13.04;69.73
75136;BME280;63707;52.212;9.540;2022-11-15T09:53:03;99464.44;;;12.97;69.58
75136;BME280;63707;52.212;9.540;2022-11-15T09:55:34;99454.00;;;13.17;69.43
75136;BME280;63707;52.212;9.540;2022-11-15T09:58:08;99449.31;;;13.06;69.59
75136;BME280;63707;52.212;9.540;2022-11-15T10:00:37;99457.75;;;12.81;70.06
75136;BME280;63707;52.212;9.540;2022-11-15T10:03:11;99459.06;;;12.90;69.76
75136;BME280;63707;52.212;9.540;2022-11-15T10:05:39;99451.84;;;13.19;69.41
75136;BME280;63707;52.212;9.540;2022-11-15T10:08:16;99446.16;;;13.33;68.92
75136;BME280;63707;52.212;9.540;2022-11-15T10:10:47;99443.06;;;13.29;68.78
75136;BME280;63707;52.212;9.540;2022-11-15T10:13:19;99445.56;;;13.31;68.19
75136;BME280;63707;52.212;9.540;2022-11-15T10:15:46;99446.03;;;13.39;67.70
75136;BME280;63707;52.212;9.540;2022-11-15T10:18:16;99435.91;;;13.51;67.92
75136;BME280;63707;52.212;9.540;2022-11-15T10:20:49;99428.88;;;13.55;67.42
75136;BME280;63707;52.212;9.540;2022-11-15T10:23:17;99432.56;;;13.49;67.29
75136;BME280;63707;52.212;9.540;2022-11-15T10:25:43;99436.69;;;13.64;66.75
75136;BME280;63707;52.212;9.540;2022-11-15T10:28:13;99434.56;;;13.66;67.45
75136;BME280;63707;52.212;9.540;2022-11-15T10:30:41;99432.34;;;13.91;66.04
75136;BME280;63707;52.212;9.540;2022-11-15T10:33:17;99432.69;;;13.43;66.92
75136;BME280;63707;52.212;9.540;2022-11-15T10:35:44;99425.81;;;13.40;66.88
75136;BME280;63707;52.212;9.540;2022-11-15T10:38:11;99428.88;;;13.44;67.04
75136;BME280;63707;52.212;9.540;2022-11-15T10:40:38;99424.72;;;13.41;67.02
75136;BME280;63707;52.212;9.540;2022-11-15T10:43:12;99422.63;;;13.83;65.83
75136;BME280;63707;52.212;9.540;2022-11-15T10:45:39;99425.84;;;13.69;65.73
75136;BME280;63707;52.212;9.540;2022-11-15T10:48:23;99423.00;;;13.64;65.54
75136;BME280;63707;52.212;9.540;2022-11-15T10:50:50;99423.94;;;13.69;66.00
75136;BME280;63707;52.212;9.540;2022-11-15T10:53:23;99420.88;;;13.66;65.70
75136;BME280;63707;52.212;9.540;2022-11-15T10:55:53;99425.50;;;13.77;64.47
75136;BME280;63707;52.212;9.540;2022-11-15T10:58:31;99409.03;;;13.89;65.19
75136;BME280;63707;52.212;9.540;2022-11-15T11:01:08;99413.81;;;14.10;64.46
75136;BME280;63707;52.212;9.540;2022-11-15T11:03:37;99406.44;;;14.10;64.58
75136;BME280;63707;52.212;9.540;2022-11-15T11:06:08;99398.75;;;13.96;64.42
75136;BME280;63707;52.212;9.540;2022-11-15T11:08:35;99394.53;;;14.05;64.66
75136;BME280;63707;52.212;9.540;2022-11-15T11:11:02;99393.88;;;13.98;64.71
75136;BME280;63707;52.212;9.540;2022-11-15T11:13:30;99393.47;;;14.34;63.06
75136;BME280;63707;52.212;9.540;2022-11-15T11:16:02;99399.88;;;14.11;63.71
75136;BME280;63707;52.212;9.540;2022-11-15T11:18:36;99398.41;;;13.92;64.83
75136;BME280;63707;52.212;9.540;2022-11-15T11:21:09;99398.44;;;14.37;63.45
75136;BME280;63707;52.212;9.540;2022-11-15T11:23:43;99388.66;;;14.41;63.00
75136;BME280;63707;52.212;9.540;2022-11-15T11:26:24;99388.81;;;14.35;63.27
75136;BME280;63707;52.212;9.540;2022-11-15T11:28:57;99392.34;;;13.90;64.28
75136;BME280;63707;52.212;9.540;2022-11-15T11:31:31;99379.88;;;14.11;63.79
75136;BME280;63707;52.212;9.540;2022-11-15T11:34:05;99385.75;;;14.03;64.08
75136;BME280;63707;52.212;9.540;2022-11-15T11:36:39;99378.22;;;13.81;64.42
75136;BME280;63707;52.212;9.540;2022-11-15T11:39:19;99384.47;;;13.94;64.24
75136;BME280;63707;52.212;9.540;2022-11-15T11:41:56;99384.69;;;13.64;64.64
75136;BME280;63707;52.212;9.540;2022-11-15T11:44:32;99371.84;;;13.93;64.15
75136;BME280;63707;52.212;9.540;2022-11-15T11:47:00;99387.59;;;14.14;63.22
75136;BME280;63707;52.212;9.540;2022-11-15T11:49:33;99385.69;;;13.86;64.33
75136;BME280;63707;52.212;9.540;2022-11-15T11:52:04;99371.22;;;13.74;64.51
75136;BME280;63707;52.212;9.540;2022-11-15T11:54:40;99366.94;;;13.66;64.71
75136;BME280;63707;52.212;9.540;2022-11-15T11:57:13;99367.38;;;13.46;65.26
75136;BME280;63707;52.212;9.540;2022-11-15T11:59:46;99366.31;;;13.12;65.92
75136;BME280;63707;52.212;9.540;2022-11-15T12:02:18;99363.06;;;13.50;65.63
75136;BME280;63707;52.212;9.540;2022-11-15T12:04:50;99358.00;;;13.19;65.76
75136;BME280;63707;52.212;9.540;2022-11-15T12:07:20;99365.88;;;13.27;65.71
75136;BME280;63707;52.212;9.540;2022-11-15T12:09:53;99361.09;;;13.34;65.53
75136;BME280;63707;52.212;9.540;2022-11-15T12:12:27;99345.28;;;13.13;66.31
75136;BME280;63707;52.212;9.540;2022-11-15T12:14:55;99354.88;;;13.50;65.85
75136;BME280;63707;52.212;9.540;2022-11-15T12:17:24;99353.44;;;13.48;65.57
75136;BME280;63707;52.212;9.540;2022-11-15T12:19:51;99347.19;;;13.24;65.66
75136;BME280;63707;52.212;9.540;2022-11-15T12:22:20;99349.78;;;13.42;65.44
75136;BME280;63707;52.212;9.540;2022-11-15T12:24:53;99337.81;;;13.60;65.39
75136;BME280;63707;52.212;9.540;2022-11-15T12:27:29;99335.81;;;13.55;65.04
75136;BME280;63707;52.212;9.540;2022-11-15T12:30:00;99337.56;;;13.62;64.98
75136;BME280;63707;52.212;9.540;2022-11-15T12:32:30;99336.91;;;13.43;65.74
75136;BME280;63707;52.212;9.540;2022-11-15T12:34:59;99337.66;;;13.38;66.16
75136;BME280;63707;52.212;9.540;2022-11-15T12:37:50;99326.91;;;13.48;65.22
75136;BME280;63707;52.212;9.540;2022-11-15T12:40:21;99327.06;;;13.42;65.80
75136;BME280;63707;52.212;9.540;2022-11-15T12:45:40;99315.06;;;13.31;66.27
75136;BME280;63707;52.212;9.540;2022-11-15T12:57:33;99313.03;;;13.38;66.39
75136;BME280;63707;52.212;9.540;2022-11-15T13:00:00;99305.75;;;13.44;66.09
75136;BME280;63707;52.212;9.540;2022-11-15T13:02:29;99303.44;;;13.52;66.07
75136;BME280;63707;52.212;9.540;2022-11-15T13:08:00;99295.53;;;13.68;65.84
75136;BME280;63707;52.212;9.540;2022-11-15T13:10:30;99287.84;;;13.53;65.88
75136;BME280;63707;52.212;9.540;2022-11-15T13:12:57;99289.84;;;13.29;66.18
75136;BME280;63707;52.212;9.540;2022-11-15T13:15:38;99285.72;;;13.55;65.96
75136;BME280;63707;52.212;9.540;2022-11-15T13:18:34;99297.16;;;13.52;66.02
75136;BME280;63707;52.212;9.540;2022-11-15T13:21:00;99296.50;;;13.62;66.06
75136;BME280;63707;52.212;9.540;2022-11-15T13:23:27;99287.19;;;13.46;67.12
75136;BME280;63707;52.212;9.540;2022-11-15T13:26:02;99289.97;;;13.34;67.80